Архив погоды в Лукоянове

Метеограмма Лукоянов
Воскресенье, 31 Мая
Время местн. Темп Ветер Видим Явления Облачность нижн/средн/верх Атм. давл. Влжн Точка росы ВНГО R Сост. почвы Tg s
Напр Скр Прв ур.ст ур.м изм
06:00 +15.3° З 2 5 10 км - облачно 736 756 -0.8 96% +14.6° 1 км - Влажная (без луж) - -
03:00 +15° З 2 4 10 км небо без изменений {ливневые осадки} облачно 737 756 -1 95% +14.2° 1 км - - - -
00:00 +17° З 1 2 10 км небо без изменений {ливневые осадки} облачно 738 757 -0.1 79% +13.4° 1 км - - - -
Суббота, 30 Мая
Время местн. Темп Ветер Видим Явления Облачность нижн/средн/верх Атм. давл. Влжн Точка росы ВНГО R Сост. почвы Tg s
Напр Скр Прв ур.ст ур.м изм
21:00 +19.9° В 2 5 10 км - облачно 738 757 -0.8 56% +10.8° более 2.5 км - - - -
18:00 +23.7° В,Ю-В 2 5 20 км - облачно 739 758 -0.7 38% +8.6° - - - - -
15:00 +25.9° В 4 8 20 км - переменная облачность 740 758 -1.4 36% +9.7° более 2.5 км - - - -
12:00 +25° В 4 7 20 км - ясно 741 760 -1.1 33% +7.7° более 2.5 км - - - -
09:00 +22.1° В 3 5 20 км - ясно 742 761 -0.9 43% +8.8° более 2.5 км - - - -
06:00 +15.8° В 2 3 20 км - переменная облачность 743 762 -0.2 67% +9.7° более 2.5 км - Влажная (без луж) - -
03:00 +14° В 2 3 10 км - облачно 743 763 -0.7 71% +8.9° более 2.5 км - - - -
00:00 +16.3° В 2 3 10 км - ясно 744 763 -0.1 64% +9.4° более 2.5 км - - - -
Пятница, 29 Мая
Время местн. Темп Ветер Видим Явления Облачность нижн/средн/верх Атм. давл. Влжн Точка росы ВНГО R Сост. почвы Tg s
Напр Скр Прв ур.ст ур.м изм
21:00 +18.6° В 2 3 10 км - ясно 744 763 -0.4 63% +11.5° более 2.5 км - - - -
18:00 +24.4° Ю-В 3 5 20 км - ясно 744 763 -1.1 41% +10.2° более 2.5 км - - - -
15:00 +24° В,Ю-В 4 8 20 км - переменная облачность 745 764 -1.2 41% +10° более 2.5 км - - - -
12:00 +22.2° Ю-В 4 8 20 км - ясно 747 766 -1 46% +9.9° более 2.5 км - - - -
09:00 +20° Ю,Ю-В 3 7 20 км - ясно 748 767 -0.7 - - более 2.5 км - - - -
06:00 +14.1° В,Ю-В 2 4 20 км - переменная облачность 748 768 -0.2 66% +7.8° более 2.5 км - Влажная (без луж) - -
03:00 +11.8° В 2 2 10 км - ясно 748 768 -0.2 71% +6.8° более 2.5 км - - - -
00:00 +13° В 1 2 10 км - ясно 749 768 -0.2 65% +6.5° более 2.5 км - - - -
Четверг, 28 Мая
Время местн. Темп Ветер Видим Явления Облачность нижн/средн/верх Атм. давл. Влжн Точка росы ВНГО R Сост. почвы Tg s
Напр Скр Прв ур.ст ур.м изм
21:00 +14.6° В 1 2 10 км - переменная облачность 749 768 +0.1 61% +7.1° более 2.5 км - - - -
18:00 +18.1° В 1 4 20 км - переменная облачность 749 768 -0.4 52% +8° 1.5 км 0 - - -
15:00 +18.8° штиль 0 0 20 км - облачно с прояснениями 749 768 -0.3 39% +4.6° 1 км - - - -
12:00 +18.1° З,Ю-З 2 3 20 км - облачно с прояснениями 749 769 -0.5 46% +6.4° 1 км - - - -
09:00 +17.1° З 1 3 20 км - переменная облачность 750 769 +0.5 51% +6.8° 1 км - - - -
06:00 +10.9° штиль 0 0 20 км - облачно с прояснениями 749 769 +0.3 87% +8.9° - - Влажная (без луж) - -
03:00 +8.2° З 1 2 10 км - переменная облачность 749 769 +0.3 95% +7.4° - - - - -